URO101P EHBK-EGHH
Flight info
| Callsign | URO101P |
|---|---|
| Flight time | 0h 53m |
| Altitude | 40000 |
| Route | LNO N852 TERLA L608 DENUT L610 KOPUL Q63 IPKUS M40 UMBUR |
| Aircraft | A346/H-SDE2E3FGHIJ3J4J5M1RWXY/LB1D1 |
Departure
| Time | 2026-05-04 07:26 |
|---|---|
| Airport | Maastricht Aachen Airport (EHBK) |
Arrival
| Time | 2026-05-04 08:20 |
|---|---|
| Airport | Bournemouth Airport (EGHH) |
| Time | Latitude | Longitude | Altitude | Speed | Heading |
|---|---|---|---|---|---|
| 2026-05-04 07:15 | 50.91353 | 5.77720 | 390 ft | 0 kts | 122° |
| 2026-05-04 07:19 | 50.91351 | 5.77720 | 390 ft | 4 kts | 147° |
| 2026-05-04 07:20 | 50.91361 | 5.77708 | 390 ft | 2 kts | 138° |
| 2026-05-04 07:20 | 50.91372 | 5.77688 | 390 ft | 4 kts | 104° |
| 2026-05-04 07:20 | 50.91371 | 5.77655 | 390 ft | 4 kts | 78° |
| 2026-05-04 07:20 | 50.91366 | 5.77616 | 390 ft | 4 kts | 89° |
| 2026-05-04 07:22 | 50.91336 | 5.77543 | 390 ft | 0 kts | 33° |
| 2026-05-04 07:24 | 50.91396 | 5.77605 | 390 ft | 20 kts | 33° |
| 2026-05-04 07:24 | 50.91524 | 5.77718 | 390 ft | 22 kts | 18° |
| 2026-05-04 07:24 | 50.91679 | 5.77831 | 390 ft | 27 kts | 32° |
| 2026-05-04 07:24 | 50.91842 | 5.77994 | 390 ft | 29 kts | 32° |
| 2026-05-04 07:25 | 50.91991 | 5.78077 | 390 ft | 20 kts | 328° |
| 2026-05-04 07:26 | 50.85941 | 5.75348 | 4042 ft | 220 kts | 144° |
| 2026-05-04 07:27 | 50.84952 | 5.77330 | 4659 ft | 244 kts | 113° |
| 2026-05-04 07:27 | 50.84387 | 5.79939 | 5386 ft | 263 kts | 108° |
| 2026-05-04 07:27 | 50.83825 | 5.82804 | 6213 ft | 278 kts | 108° |
| 2026-05-04 07:27 | 50.83239 | 5.85755 | 7196 ft | 284 kts | 109° |
| 2026-05-04 07:28 | 50.82624 | 5.88760 | 8239 ft | 288 kts | 112° |
| 2026-05-04 07:28 | 50.81611 | 5.91481 | 9204 ft | 289 kts | 137° |
| 2026-05-04 07:28 | 50.79979 | 5.93279 | 10204 ft | 286 kts | 162° |
| 2026-05-04 07:28 | 50.78030 | 5.93933 | 10991 ft | 291 kts | 182° |
| 2026-05-04 07:29 | 50.75993 | 5.93466 | 11584 ft | 303 kts | 201° |
| 2026-05-04 07:29 | 50.74109 | 5.91817 | 12130 ft | 319 kts | 220° |
| 2026-05-04 07:29 | 50.72477 | 5.89297 | 12737 ft | 335 kts | 223° |
| 2026-05-04 07:29 | 50.70722 | 5.86875 | 13565 ft | 343 kts | 221° |
| 2026-05-04 07:30 | 50.68911 | 5.84394 | 14470 ft | 347 kts | 220° |
| 2026-05-04 07:30 | 50.67143 | 5.81765 | 15304 ft | 353 kts | 230° |
| 2026-05-04 07:30 | 50.65914 | 5.78383 | 16143 ft | 361 kts | 248° |
| 2026-05-04 07:30 | 50.65424 | 5.74464 | 16984 ft | 369 kts | 266° |
| 2026-05-04 07:31 | 50.65776 | 5.70405 | 17822 ft | 379 kts | 285° |
| 2026-05-04 07:31 | 50.66979 | 5.66657 | 18597 ft | 390 kts | 304° |
| 2026-05-04 07:33 | 50.76005 | 5.39889 | 23798 ft | 413 kts | 287° |
| 2026-05-04 07:33 | 50.77116 | 5.35753 | 24439 ft | 416 kts | 288° |
| 2026-05-04 07:33 | 50.78277 | 5.31524 | 25126 ft | 419 kts | 288° |
| 2026-05-04 07:33 | 50.79455 | 5.27287 | 25819 ft | 421 kts | 288° |
| 2026-05-04 07:34 | 50.80644 | 5.23038 | 26491 ft | 423 kts | 288° |
| 2026-05-04 07:34 | 50.81843 | 5.18762 | 27159 ft | 425 kts | 288° |
| 2026-05-04 07:34 | 50.83048 | 5.14472 | 27823 ft | 428 kts | 288° |
| 2026-05-04 07:34 | 50.84264 | 5.10139 | 28437 ft | 431 kts | 288° |
| 2026-05-04 07:35 | 50.85487 | 5.05777 | 29059 ft | 434 kts | 288° |
| 2026-05-04 07:35 | 50.86700 | 5.01446 | 29679 ft | 437 kts | 288° |
| 2026-05-04 07:35 | 50.87942 | 4.97002 | 30264 ft | 439 kts | 288° |
| 2026-05-04 07:35 | 50.89183 | 4.92549 | 30770 ft | 442 kts | 288° |
| 2026-05-04 07:36 | 50.90432 | 4.88066 | 31407 ft | 441 kts | 288° |
| 2026-05-04 07:36 | 50.91667 | 4.83629 | 32144 ft | 438 kts | 288° |
| 2026-05-04 07:38 | 51.00152 | 4.52873 | 35913 ft | 439 kts | 288° |
| 2026-05-04 07:38 | 51.01376 | 4.48403 | 36309 ft | 441 kts | 288° |
| 2026-05-04 07:38 | 51.02602 | 4.43919 | 36689 ft | 442 kts | 288° |
| 2026-05-04 07:38 | 51.03830 | 4.39420 | 37058 ft | 444 kts | 288° |
| 2026-05-04 07:39 | 51.05061 | 4.34901 | 37410 ft | 446 kts | 289° |
| 2026-05-04 07:39 | 51.06297 | 4.30356 | 37758 ft | 447 kts | 289° |
| 2026-05-04 07:39 | 51.07538 | 4.25785 | 38099 ft | 449 kts | 289° |
| 2026-05-04 07:39 | 51.08758 | 4.21279 | 38412 ft | 450 kts | 289° |
| 2026-05-04 07:40 | 51.09999 | 4.16687 | 38690 ft | 452 kts | 289° |
| 2026-05-04 07:40 | 51.11247 | 4.12063 | 38892 ft | 454 kts | 289° |
| 2026-05-04 07:40 | 51.12494 | 4.07431 | 39105 ft | 456 kts | 289° |
| 2026-05-04 07:40 | 51.13743 | 4.02782 | 39333 ft | 457 kts | 289° |
| 2026-05-04 07:41 | 51.14993 | 3.98124 | 39549 ft | 458 kts | 289° |
| 2026-05-04 07:41 | 51.16246 | 3.93441 | 39757 ft | 459 kts | 289° |
| 2026-05-04 07:41 | 51.17503 | 3.88736 | 39957 ft | 461 kts | 289° |
| 2026-05-04 07:41 | 51.18759 | 3.84028 | 39976 ft | 462 kts | 289° |
| 2026-05-04 07:42 | 51.21269 | 3.74572 | 39982 ft | 463 kts | 290° |
| 2026-05-04 07:42 | 51.23478 | 3.64941 | 39983 ft | 460 kts | 283° |
| 2026-05-04 07:43 | 51.25034 | 3.55031 | 39985 ft | 459 kts | 279° |
| 2026-05-04 07:43 | 51.26359 | 3.45053 | 39984 ft | 459 kts | 279° |
| 2026-05-04 07:44 | 51.27658 | 3.35124 | 39991 ft | 458 kts | 278° |
| 2026-05-04 07:44 | 51.28939 | 3.25108 | 40006 ft | 459 kts | 278° |
| 2026-05-04 07:45 | 51.30217 | 3.15102 | 39997 ft | 459 kts | 278° |
| 2026-05-04 07:45 | 51.31486 | 3.05093 | 39997 ft | 458 kts | 278° |
| 2026-05-04 07:46 | 51.32745 | 2.95086 | 39993 ft | 458 kts | 278° |
| 2026-05-04 07:46 | 51.33990 | 2.85128 | 39995 ft | 458 kts | 278° |
| 2026-05-04 07:47 | 51.35231 | 2.75099 | 39990 ft | 459 kts | 278° |
| 2026-05-04 07:49 | 51.40145 | 2.34902 | 39995 ft | 460 kts | 278° |
| 2026-05-04 07:49 | 51.41356 | 2.24805 | 39989 ft | 461 kts | 278° |
| 2026-05-04 07:50 | 51.42555 | 2.14763 | 39987 ft | 461 kts | 278° |
| 2026-05-04 07:50 | 51.43751 | 2.04647 | 40001 ft | 461 kts | 278° |
| 2026-05-04 07:51 | 51.44967 | 1.94514 | 39997 ft | 461 kts | 279° |
| 2026-05-04 07:51 | 51.46218 | 1.84410 | 39931 ft | 461 kts | 279° |
| 2026-05-04 07:52 | 51.46811 | 1.79354 | 39625 ft | 459 kts | 278° |
| 2026-05-04 07:52 | 51.47392 | 1.74312 | 39225 ft | 457 kts | 278° |
| 2026-05-04 07:52 | 51.47966 | 1.69290 | 38754 ft | 457 kts | 278° |
| 2026-05-04 07:52 | 51.48533 | 1.64331 | 38155 ft | 456 kts | 278° |
| 2026-05-04 07:53 | 51.49105 | 1.59326 | 37643 ft | 454 kts | 278° |
| 2026-05-04 07:54 | 51.52952 | 1.25121 | 34227 ft | 438 kts | 276° |
| 2026-05-04 07:55 | 51.53466 | 1.20297 | 33671 ft | 435 kts | 274° |
| 2026-05-04 07:55 | 51.53837 | 1.15473 | 33120 ft | 432 kts | 271° |
| 2026-05-04 07:55 | 51.54047 | 1.10710 | 32590 ft | 432 kts | 268° |
| 2026-05-04 07:55 | 51.54102 | 1.05886 | 32024 ft | 431 kts | 265° |
| 2026-05-04 07:56 | 51.54054 | 1.01079 | 31457 ft | 430 kts | 264° |
| 2026-05-04 07:56 | 51.53996 | 0.96273 | 30877 ft | 430 kts | 263° |
| 2026-05-04 07:56 | 51.53932 | 0.91452 | 30266 ft | 431 kts | 263° |
| 2026-05-04 07:56 | 51.53867 | 0.86642 | 29773 ft | 427 kts | 263° |
| 2026-05-04 07:57 | 51.53797 | 0.81872 | 29345 ft | 424 kts | 263° |
| 2026-05-04 07:57 | 51.53726 | 0.77146 | 28917 ft | 421 kts | 263° |
| 2026-05-04 07:57 | 51.53655 | 0.72440 | 28484 ft | 419 kts | 263° |
| 2026-05-04 07:57 | 51.53584 | 0.67782 | 28052 ft | 416 kts | 263° |
| 2026-05-04 07:58 | 51.53513 | 0.63148 | 27619 ft | 413 kts | 264° |
| 2026-05-04 07:58 | 51.53465 | 0.60094 | 27328 ft | 411 kts | 264° |
| 2026-05-04 07:58 | 51.53392 | 0.55519 | 26899 ft | 408 kts | 264° |
| 2026-05-04 07:58 | 51.53293 | 0.49496 | 26327 ft | 404 kts | 264° |
| 2026-05-04 07:59 | 51.53212 | 0.45003 | 25907 ft | 400 kts | 264° |
| 2026-05-04 07:59 | 51.52901 | 0.40587 | 25457 ft | 394 kts | 257° |
| 2026-05-04 07:59 | 51.52267 | 0.36327 | 25030 ft | 390 kts | 251° |
| 2026-05-04 07:59 | 51.51667 | 0.33554 | 24742 ft | 387 kts | 247° |
| 2026-05-04 08:00 | 51.50641 | 0.29576 | 24319 ft | 384 kts | 246° |
| 2026-05-04 08:00 | 51.49593 | 0.25646 | 23904 ft | 381 kts | 246° |
| 2026-05-04 08:00 | 51.48547 | 0.21745 | 23465 ft | 378 kts | 246° |
| 2026-05-04 08:02 | 51.41440 | -0.04664 | 20436 ft | 361 kts | 245° |
| 2026-05-04 08:02 | 51.40435 | -0.08372 | 20028 ft | 360 kts | 245° |
| 2026-05-04 08:02 | 51.39435 | -0.12054 | 19614 ft | 359 kts | 245° |
| 2026-05-04 08:03 | 51.38435 | -0.15727 | 19209 ft | 358 kts | 245° |
| 2026-05-04 08:03 | 51.37437 | -0.19390 | 18805 ft | 358 kts | 245° |
| 2026-05-04 08:03 | 51.36436 | -0.23062 | 18386 ft | 357 kts | 245° |
| 2026-05-04 08:03 | 51.35439 | -0.26712 | 17960 ft | 357 kts | 245° |
| 2026-05-04 08:04 | 51.34445 | -0.30339 | 17533 ft | 355 kts | 245° |
| 2026-05-04 08:04 | 51.33465 | -0.33911 | 17146 ft | 353 kts | 245° |
| 2026-05-04 08:04 | 51.32479 | -0.37503 | 16736 ft | 351 kts | 245° |
| 2026-05-04 08:04 | 51.31508 | -0.41083 | 16347 ft | 350 kts | 246° |
| 2026-05-04 08:05 | 51.30666 | -0.44729 | 15966 ft | 349 kts | 250° |
| 2026-05-04 08:05 | 51.29990 | -0.48529 | 15784 ft | 361 kts | 255° |
| 2026-05-04 08:05 | 51.29436 | -0.52518 | 15803 ft | 366 kts | 256° |
| 2026-05-04 08:05 | 51.28905 | -0.56510 | 15839 ft | 367 kts | 256° |
| 2026-05-04 08:06 | 51.28374 | -0.60517 | 15862 ft | 367 kts | 256° |
| 2026-05-04 08:06 | 51.27842 | -0.64523 | 15878 ft | 367 kts | 256° |
| 2026-05-04 08:06 | 51.27329 | -0.68362 | 15882 ft | 367 kts | 256° |
| 2026-05-04 08:06 | 51.26792 | -0.72362 | 15597 ft | 368 kts | 256° |
| 2026-05-04 08:08 | 51.23141 | -0.99228 | 13093 ft | 331 kts | 256° |
| 2026-05-04 08:08 | 51.22658 | -1.02750 | 12964 ft | 319 kts | 256° |
| 2026-05-04 08:10 | 51.18057 | -1.25130 | 12075 ft | 242 kts | 198° |
| 2026-05-04 08:11 | 51.16440 | -1.25826 | 11786 ft | 240 kts | 194° |
| 2026-05-04 08:11 | 51.13228 | -1.27109 | 11211 ft | 236 kts | 195° |
| 2026-05-04 08:11 | 51.11638 | -1.27760 | 10963 ft | 238 kts | 195° |
| 2026-05-04 08:12 | 51.09955 | -1.28458 | 10685 ft | 265 kts | 195° |
| 2026-05-04 08:12 | 51.08112 | -1.29228 | 10357 ft | 278 kts | 195° |
| 2026-05-04 08:12 | 51.06234 | -1.30013 | 10058 ft | 278 kts | 195° |
| 2026-05-04 08:12 | 51.04363 | -1.30796 | 9733 ft | 277 kts | 195° |
| 2026-05-04 08:13 | 51.02497 | -1.31579 | 9407 ft | 276 kts | 195° |
| 2026-05-04 08:13 | 51.00668 | -1.32346 | 9092 ft | 275 kts | 195° |
| 2026-05-04 08:13 | 50.98808 | -1.33125 | 9034 ft | 275 kts | 195° |
| 2026-05-04 08:13 | 50.96951 | -1.33901 | 8990 ft | 272 kts | 195° |
| 2026-05-04 08:14 | 50.95201 | -1.34990 | 8539 ft | 273 kts | 216° |
| 2026-05-04 08:14 | 50.93886 | -1.37222 | 7917 ft | 281 kts | 233° |
| 2026-05-04 08:14 | 50.92782 | -1.39849 | 7280 ft | 290 kts | 236° |
| 2026-05-04 08:16 | 50.84530 | -1.58488 | 3006 ft | 274 kts | 234° |
| 2026-05-04 08:16 | 50.83426 | -1.60887 | 2482 ft | 268 kts | 234° |
| 2026-05-04 08:16 | 50.82352 | -1.63219 | 2117 ft | 256 kts | 234° |
| 2026-05-04 08:17 | 50.81366 | -1.65476 | 2073 ft | 243 kts | 241° |
| 2026-05-04 08:17 | 50.80698 | -1.67874 | 1921 ft | 233 kts | 252° |
| 2026-05-04 08:17 | 50.80288 | -1.70307 | 1645 ft | 224 kts | 257° |
| 2026-05-04 08:17 | 50.79939 | -1.72652 | 1387 ft | 213 kts | 256° |
| 2026-05-04 08:19 | 50.77931 | -1.84714 | 53 ft | 55 kts | 255° |
| 2026-05-04 08:19 | 50.77835 | -1.85286 | 50 ft | 52 kts | 255° |
| 2026-05-04 08:20 | 50.77730 | -1.85703 | 51 ft | 18 kts | 237° |
| 2026-05-04 08:20 | 50.77747 | -1.85735 | 53 ft | 10 kts | 31° |
| 2026-05-04 08:20 | 50.77798 | -1.85493 | 50 ft | 26 kts | 75° |
| 2026-05-04 08:20 | 50.77850 | -1.85190 | 55 ft | 34 kts | 75° |
| 2026-05-04 08:21 | 50.77913 | -1.84821 | 54 ft | 35 kts | 76° |
| 2026-05-04 08:21 | 50.77974 | -1.84439 | 52 ft | 37 kts | 75° |
| 2026-05-04 08:21 | 50.78037 | -1.84056 | 52 ft | 32 kts | 75° |
| 2026-05-04 08:21 | 50.78120 | -1.83930 | 52 ft | 19 kts | 350° |
| 2026-05-04 08:22 | 50.78288 | -1.83994 | 51 ft | 31 kts | 346° |
| 2026-05-04 08:22 | 50.78501 | -1.84079 | 52 ft | 32 kts | 346° |